CheckWX is a tool to help pilots better visualize weather data.  It is not intended as a substitute for an official pre-flight weather briefing.

23:33:59 UTC

KCMI TAF
University of Illinois-Willard Airport
Champaign/Urbana, Illinois, USA
KCMI 181732Z 1818/1918 16012KT P6SM BKN250 FM190300 13008KT P6SM SCT250 FM191600 16010KT P6SM BKN250

Oct-18@
18:00 UTC

Oct-18 @ 18:00 UTC

Oct-19@
03:00 UTC

Oct-19 @ 03:00 UTC

KCMI 181732Z 1818/1918 16012KT P6SM BKN250
Wind
  • 160° at 12 KTS
Cloud Levels
  • Broken at 25,000' AGL

Oct-19@
03:00 UTC

Oct-19 @ 03:00 UTC

Oct-19@
16:00 UTC

Oct-19 @ 16:00 UTC

FM190300 13008KT P6SM SCT250

From

From Standard forecast or significant change

Wind
  • 130° at 8 KTS
Cloud Levels
  • Scattered at 25,000' AGL

Oct-19@
16:00 UTC

Oct-19 @ 16:00 UTC

Oct-19@
18:00 UTC

Oct-19 @ 18:00 UTC

FM191600 16010KT P6SM BKN250

From

From Standard forecast or significant change

Wind
  • 160° at 10 KTS
Cloud Levels
  • Broken at 25,000' AGL